Time;durP1;ratioP1;P1;durP2;ratioP2;P2;SDS_P1;SDS_P2;PMS_P1;PMS_P2;Temp;Humidity;BMP_temperature;BMP_pressure;BME280_temperature;BME280_humidity;BME280_pressure;Samples;Min_cycle;Max_cycle;Signal;HPM_P1;HPM_P2
2021/06/10 00:17:56;;;;;;;13.38;6.63;;;;;;;17.71;100.00;99838.56;1207739;22;21561;-76
2021/06/10 01:38:58;;;;;;;19.88;8.80;;;;;;;17.39;100.00;99783.06;1207278;22;21538;-76
2021/06/10 02:32:07;;;;;;;15.85;7.78;;;;;;;16.56;100.00;99800.72;1209983;22;21569;-77
2021/06/10 02:40:34;;;;;;;10.30;7.95;;;;;;;16.57;100.00;99808.31;1205090;22;21558;-76
2021/06/10 02:51:14;;;;;;;18.25;8.02;;;;;;;16.77;100.00;99792.63;1205667;22;21636;-76
2021/06/10 03:04:22;;;;;;;14.77;8.77;;;;;;;16.80;100.00;99805.28;1207906;22;21590;-76
2021/06/10 03:26:22;;;;;;;14.55;9.25;;;;;;;16.85;100.00;99800.75;1210040;22;21637;-77
2021/06/10 03:34:33;;;;;;;14.70;8.95;;;;;;;17.27;100.00;99803.41;1210181;22;21537;-75
2021/06/10 03:51:16;;;;;;;15.70;9.75;;;;;;;17.09;100.00;99814.72;3663102;22;21035;-74
2021/06/10 04:06:35;;;;;;;13.75;10.15;;;;;;;16.93;100.00;99810.56;1205779;22;21648;-74
2021/06/10 04:16:30;;;;;;;19.25;11.20;;;;;;;17.41;100.00;99801.78;1281197;22;20168;-71
2021/06/10 04:38:55;;;;;;;21.52;13.15;;;;;;;18.65;99.36;99810.41;1356449;22;20189;-73
2021/06/10 04:52:39;;;;;;;45.65;40.95;;;;;;;19.18;97.24;99801.78;1208221;22;21515;-73
2021/06/10 05:05:33;;;;;;;25.42;19.95;;;;;;;20.22;94.40;99810.13;1208413;22;20163;-74
2021/06/10 05:08:06;;;;;;;21.80;16.60;;;;;;;20.23;94.96;99806.59;1211631;22;20167;-73
2021/06/10 05:15:41;;;;;;;21.25;16.15;;;;;;;20.65;91.44;99812.16;1283126;22;20200;-72
2021/06/10 05:18:08;;;;;;;21.05;16.40;;;;;;;20.98;89.65;99806.28;1351243;22;20164;-73
2021/06/10 05:26:23;;;;;;;20.65;13.43;;;;;;;21.43;89.67;99808.06;1211175;22;20182;-74
2021/06/10 05:29:14;;;;;;;21.60;13.52;;;;;;;21.54;88.82;99805.50;1351093;22;20215;-73
2021/06/10 05:34:32;;;;;;;22.88;13.10;;;;;;;21.71;87.54;99806.78;1283049;22;20234;-74
2021/06/10 05:39:36;;;;;;;23.40;12.32;;;;;;;22.38;86.69;99810.97;1208488;22;20191;-73
2021/06/10 05:47:03;;;;;;;10.98;7.93;;;;;;;22.49;79.56;99814.47;1282978;22;21031;-72
2021/06/10 05:49:53;;;;;;;14.18;7.55;;;;;;;22.74;76.67;99811.63;3677073;22;20484;-74
2021/06/10 06:00:31;;;;;;;7.68;6.07;;;;;;;23.67;76.54;99815.97;1351520;22;20210;-74
2021/06/10 06:16:15;;;;;;;4.38;3.38;;;;;;;24.66;64.60;99822.00;1350262;22;20609;-73
2021/06/10 06:21:28;;;;;;;5.90;3.33;;;;;;;24.71;65.99;99809.41;1222879;22;20172;31
2021/06/10 06:44:19;;;;;;;3.20;2.90;;;;;;;25.83;55.19;99844.19;1204927;22;21498;-74
2021/06/10 07:00:32;;;;;;;3.45;2.78;;;;;;;26.12;54.42;99854.53;1423309;22;21308;-72
2021/06/10 07:15:32;;;;;;;4.47;2.90;;;;;;;26.96;52.28;99855.97;3719230;22;20738;-73
2021/06/10 07:18:01;;;;;;;4.35;2.63;;;;;;;27.28;51.73;99857.03;1412087;22;20167;31
2021/06/10 07:22:59;;;;;;;4.10;2.72;;;;;;;26.56;51.12;99845.91;3664800;22;20070;31
2021/06/10 07:25:50;;;;;;;3.70;2.75;;;;;;;27.00;51.34;99839.81;3796058;22;20045;-74
2021/06/10 07:33:39;;;;;;;2.83;2.55;;;;;;;26.81;51.05;99862.66;3840232;22;20321;-74
2021/06/10 07:38:43;;;;;;;3.38;2.70;;;;;;;27.98;49.68;99855.22;3760211;22;20488;-74
2021/06/10 07:49:49;;;;;;;3.92;3.20;;;;;;;28.16;47.75;99854.16;1354324;22;20038;-74
2021/06/10 07:52:23;;;;;;;3.13;2.83;;;;;;;27.38;47.82;99860.41;1354960;22;21352;-74
2021/06/10 08:04:55;;;;;;;4.93;2.90;;;;;;;28.58;46.53;99838.44;1419422;22;24958;31
2021/06/10 08:07:36;;;;;;;3.15;2.80;;;;;;;28.57;47.18;99859.53;3769602;22;20041;-73
2021/06/10 08:10:06;;;;;;;7.10;2.90;;;;;;;28.22;46.94;99848.28;1356879;22;20189;-72
2021/06/10 08:25:34;;;;;;;4.18;3.22;;;;;;;26.92;49.46;99858.03;1495056;22;20179;-74
2021/06/10 08:28:10;;;;;;;8.05;3.45;;;;;;;26.85;48.78;99851.78;1418676;23;20211;-72
2021/06/10 08:41:26;;;;;;;7.05;3.50;;;;;;;28.80;44.31;99857.94;1419161;23;20235;-73
2021/06/10 08:54:34;;;;;;;3.80;3.50;;;;;;;29.62;45.05;99857.75;1196582;22;20193;31
2021/06/10 08:59:32;;;;;;;3.70;3.30;;;;;;;29.20;41.20;99854.56;1422262;22;20249;-73
2021/06/10 09:02:13;;;;;;;4.72;3.38;;;;;;;28.95;41.93;99864.16;1424273;22;20191;-72
2021/06/10 09:04:53;;;;;;;3.97;3.40;;;;;;;29.43;41.21;99858.13;1416491;22;20181;-72
2021/06/10 09:07:49;;;;;;;4.53;3.60;;;;;;;27.91;43.57;99859.41;3677753;22;20058;-74
2021/06/10 16:46:39;;;;;;;4.72;3.63;;;;;;;21.86;72.09;99856.59;6282123;22;196445;-79
2021/06/10 16:49:05;;;;;;;6.15;3.30;;;;;;;21.75;70.61;99854.78;6289907;22;20010;-81
2021/06/10 16:51:32;;;;;;;4.78;3.08;;;;;;;21.89;68.30;99854.59;6287836;22;20089;-81
2021/06/10 16:53:58;;;;;;;5.13;3.10;;;;;;;22.01;68.89;99853.66;6288672;22;20012;-86
2021/06/10 16:57:04;;;;;;;6.35;4.30;;;;;;;21.68;70.29;99863.13;6288423;22;20010;-81
2021/06/10 16:59:30;;;;;;;6.53;4.57;;;;;;;21.62;71.83;99861.84;6288674;22;20030;-78
2021/06/10 17:02:09;;;;;;;4.13;3.72;;;;;;;21.51;72.57;99877.34;6289950;22;20370;-76
2021/06/10 17:04:39;;;;;;;5.72;3.72;;;;;;;21.54;72.47;99879.69;6288410;22;20027;-80
2021/06/10 17:07:08;;;;;;;4.65;3.95;;;;;;;21.54;73.42;99880.53;6288840;22;20370;-82
2021/06/10 17:09:49;;;;;;;6.50;4.45;;;;;;;21.57;74.10;99877.69;6290584;22;20019;-78
2021/06/10 17:12:16;;;;;;;5.97;4.57;;;;;;;21.75;73.76;99882.47;6288253;22;20228;-79
2021/06/10 17:14:43;;;;;;;5.70;4.15;;;;;;;21.66;73.57;99875.38;6288042;22;20022;-82
2021/06/10 17:17:14;;;;;;;4.10;3.70;;;;;;;21.72;73.22;99878.31;6287693;22;20015;-81
2021/06/10 17:19:42;;;;;;;5.18;3.67;;;;;;;21.28;75.20;99881.63;6287774;22;20096;-81
2021/06/10 17:22:11;;;;;;;5.18;3.80;;;;;;;21.27;75.26;99882.56;6287588;22;20011;-87
2021/06/10 17:24:51;;;;;;;5.28;4.30;;;;;;;21.35;74.86;99882.81;6287533;22;20466;-84
2021/06/10 17:27:29;;;;;;;5.65;4.43;;;;;;;21.54;74.71;99882.28;6287690;22;20107;-77
2021/06/10 17:29:58;;;;;;;7.22;4.75;;;;;;;21.76;75.49;99877.16;6295214;22;20038;-76
2021/06/10 17:32:30;;;;;;;7.55;5.50;;;;;;;21.51;75.43;99878.16;6289473;22;20004;-76
2021/06/10 17:35:10;;;;;;;7.25;5.30;;;;;;;21.76;74.41;99882.34;6288618;22;20027;-78
2021/06/10 17:37:45;;;;;;;7.50;5.90;;;;;;;21.75;74.77;99883.25;6290176;22;20018;-86
2021/06/10 17:40:48;;;;;;;8.60;5.43;;;;;;;21.49;76.22;99884.41;6288037;22;20386;-78
2021/06/10 17:43:17;;;;;;;10.68;7.57;;;;;;;21.54;76.07;99888.28;6288072;22;20010;-80
2021/06/10 17:45:43;;;;;;;5.55;4.90;;;;;;;21.26;76.86;99895.59;6287482;22;20059;-79
2021/06/10 17:48:29;;;;;;;6.63;4.47;;;;;;;21.24;76.88;99900.91;6284597;22;20033;-81
2021/06/10 17:50:54;;;;;;;8.23;4.57;;;;;;;21.07;77.41;99914.25;6278314;22;20011;-83
2021/06/10 17:53:29;;;;;;;5.30;4.80;;;;;;;21.20;77.34;99908.97;6280806;22;20031;-80
2021/06/10 17:56:00;;;;;;;6.40;5.15;;;;;;;21.50;76.78;99912.75;6281147;22;20036;-82
2021/06/10 17:58:26;;;;;;;5.60;4.70;;;;;;;21.19;76.11;99908.19;6279573;22;20104;-79
2021/06/10 18:00:52;;;;;;;4.90;4.40;;;;;;;21.08;77.53;99915.03;6279341;22;20007;-87
2021/06/10 18:03:25;;;;;;;6.75;4.85;;;;;;;20.67;78.66;99918.81;6279399;22;20022;-85
2021/06/10 18:05:52;;;;;;;7.97;5.45;;;;;;;20.65;80.14;99919.84;6279397;22;20231;-86
2021/06/10 18:08:22;;;;;;;5.38;4.50;;;;;;;20.55;81.52;99911.06;6280357;22;20063;-86
2021/06/10 18:10:51;;;;;;;5.18;4.35;;;;;;;20.91;80.79;99918.81;6279689;22;20027;-81
2021/06/10 18:13:24;;;;;;;10.20;4.97;;;;;;;20.83;81.18;99915.97;6279807;22;20108;-77
2021/06/10 18:16:09;;;;;;;6.00;4.80;;;;;;;21.09;80.82;99904.63;6279965;22;20007;-78
2021/06/10 18:18:39;;;;;;;6.55;5.10;;;;;;;20.64;83.38;99910.41;6280336;22;20350;-79
2021/06/10 18:21:08;;;;;;;5.97;5.22;;;;;;;20.89;82.50;99909.53;6279560;22;20031;-78
2021/06/10 18:23:44;;;;;;;7.72;6.18;;;;;;;20.93;81.99;99916.13;6280779;22;20080;-77
2021/06/10 18:26:19;;;;;;;5.65;5.15;;;;;;;20.53;85.21;99912.94;6279310;22;20010;-76
2021/06/10 18:28:45;;;;;;;8.50;5.80;;;;;;;20.64;85.62;99919.00;6277253;22;20015;-81
2021/06/10 18:31:17;;;;;;;8.27;5.40;;;;;;;20.49;85.28;99925.25;6279955;22;20027;-81
2021/06/10 18:33:44;;;;;;;7.38;5.97;;;;;;;20.70;83.91;99925.50;6279904;22;20014;-80
2021/06/10 18:36:15;;;;;;;6.88;5.57;;;;;;;20.57;85.90;99927.28;6279379;22;20039;-79
2021/06/10 18:38:56;;;;;;;9.02;6.28;;;;;;;20.76;84.55;99921.69;6282087;22;20007;-80
2021/06/10 18:41:24;;;;;;;10.82;7.78;;;;;;;20.97;83.59;99926.16;6279836;22;20008;-79
2021/06/10 18:43:49;;;;;;;7.03;5.57;;;;;;;20.60;85.67;99929.69;6281469;22;20026;-79
2021/06/10 18:46:24;;;;;;;5.47;4.75;;;;;;;20.48;86.51;99930.53;6285683;22;20018;-77
2021/06/10 18:48:50;;;;;;;7.93;4.75;;;;;;;20.28;86.09;99944.00;6284089;22;20019;-76
2021/06/10 18:51:22;;;;;;;7.25;5.30;;;;;;;20.77;84.94;99941.41;6311227;22;20019;-78
2021/06/10 18:53:48;;;;;;;8.77;4.90;;;;;;;20.86;83.76;99945.94;6284612;22;20058;-82
2021/06/10 18:56:16;;;;;;;12.18;5.07;;;;;;;21.02;84.69;99954.25;6284316;22;19999;-81
2021/06/10 18:58:43;;;;;;;5.00;4.45;;;;;;;20.51;83.66;99961.31;6285061;22;20046;-81
2021/06/10 19:01:12;;;;;;;5.07;4.57;;;;;;;20.44;83.19;99947.19;6284024;22;20009;-80
2021/06/10 19:03:45;;;;;;;6.30;4.47;;;;;;;20.64;83.85;99951.75;6284110;22;20018;-86
2021/06/10 19:06:11;;;;;;;4.65;4.25;;;;;;;20.45;84.05;99951.41;6284615;22;20007;-75
2021/06/10 19:08:38;;;;;;;6.53;4.60;;;;;;;20.51;83.66;99950.97;6284600;22;20011;-76
2021/06/10 19:11:05;;;;;;;5.13;4.53;;;;;;;20.43;84.72;99959.25;6283096;22;20038;-76
2021/06/10 19:13:36;;;;;;;9.02;5.80;;;;;;;20.52;84.91;99957.81;6284136;22;20011;-78
2021/06/10 19:16:05;;;;;;;;;;;;;;;20.58;85.44;99957.38;6284774;22;20011;-78
2021/06/10 19:18:49;;;;;;;13.23;8.15;;;;;;;20.57;85.21;99951.38;6283773;22;19927;-77
2021/06/10 19:21:15;;;;;;;18.38;8.85;;;;;;;20.54;85.11;99940.44;6283847;22;20103;-84
2021/06/10 19:23:43;;;;;;;10.32;7.53;;;;;;;20.42;85.73;99949.84;6286305;22;20481;-83
2021/06/10 19:26:11;;;;;;;10.95;8.60;;;;;;;20.39;85.62;99950.06;6315914;22;20007;-80
2021/06/10 19:28:44;;;;;;;17.48;8.23;;;;;;;20.63;84.99;99953.53;6289479;22;20361;-78
2021/06/10 19:31:17;;;;;;;14.75;8.02;;;;;;;20.54;85.01;99955.94;6290205;22;20014;-78
2021/06/10 19:34:42;;;;;;;14.20;8.00;;;;;;;20.50;84.70;99959.66;6290500;22;20076;-78
2021/06/10 19:36:40;;;;;;;12.25;8.02;;;;;;;20.54;85.36;99959.34;6317014;22;20419;-78
2021/06/10 19:39:46;;;;;;;14.27;7.95;;;;;;;20.80;83.48;99967.03;6289712;22;20460;-78
2021/06/10 19:42:14;;;;;;;14.60;8.00;;;;;;;20.62;84.05;99963.97;6289835;22;20007;-79
2021/06/10 19:44:40;;;;;;;8.27;6.10;;;;;;;20.59;83.38;99961.59;6283772;22;20047;-79
2021/06/10 19:47:21;;;;;;;8.30;6.45;;;;;;;20.61;83.29;99960.56;6285069;22;20014;-79
2021/06/10 19:50:12;;;;;;;11.30;7.03;;;;;;;20.33;84.26;99968.56;6284828;22;20047;-79
2021/06/10 19:52:44;;;;;;;12.05;7.43;;;;;;;20.57;83.18;99971.22;6285010;22;20003;-81
2021/06/10 19:55:13;;;;;;;;;;;;;;;20.48;85.08;99980.41;6286980;22;20014;-79
2021/06/10 19:58:00;;;;;;;18.40;11.02;;;;;;;20.31;85.82;99983.34;6286174;22;19922;-79
2021/06/10 20:00:35;;;;;;;13.15;9.73;;;;;;;20.19;86.55;99983.31;6284841;22;20050;-82
2021/06/10 20:03:44;;;;;;;16.92;10.40;;;;;;;19.92;88.41;99992.88;6286131;22;20027;-79
2021/06/10 20:06:21;;;;;;;16.60;9.93;;;;;;;19.95;87.71;99997.88;6284759;22;20019;-79
2021/06/10 20:08:52;;;;;;;12.50;8.20;;;;;;;20.25;85.10;99998.41;6284694;22;20370;-78
2021/06/10 20:11:18;;;;;;;;;;;;;;;20.35;85.83;99991.69;6286076;22;20007;-79
2021/06/10 20:13:58;;;;;;;9.43;6.90;;;;;;;20.27;83.77;99997.38;6286085;22;19926;-79
2021/06/10 20:16:29;;;;;;;8.13;6.07;;;;;;;20.24;83.97;99989.03;6285907;22;20030;-79
2021/06/10 20:21:58;;;;;;;8.98;5.80;;;;;;;20.08;83.89;99986.63;6286322;22;19922;-80
2021/06/10 20:30:39;;;;;;;8.15;6.53;;;;;;;20.23;83.07;99992.53;6286957;22;20011;-80
2021/06/10 20:33:32;;;;;;;14.40;10.05;;;;;;;20.10;83.94;99991.66;6284407;22;20003;-82
2021/06/10 20:36:14;;;;;;;11.48;8.80;;;;;;;20.04;84.65;99995.50;6284581;22;20012;-81
2021/06/10 20:39:00;;;;;;;11.07;9.15;;;;;;;19.95;84.52;99996.09;6285682;22;20004;-80
2021/06/10 20:42:15;;;;;;;10.20;6.90;;;;;;;19.98;83.85;100005.38;6285776;22;20019;-79
2021/06/10 20:44:41;;;;;;;9.48;5.80;;;;;;;19.98;83.23;99995.91;6288052;22;20035;-79
2021/06/10 20:47:44;;;;;;;5.68;5.10;;;;;;;20.19;82.62;100002.25;6289453;22;20022;-79
2021/06/10 20:53:31;;;;;;;7.00;5.30;;;;;;;19.94;83.55;100002.19;6317189;22;20011;-84
2021/06/10 20:59:18;;;;;;;5.85;5.35;;;;;;;19.99;82.53;99992.38;6316901;22;20022;-79
2021/06/10 21:02:06;;;;;;;7.32;5.32;;;;;;;20.01;83.35;99994.84;6289297;22;20011;-79
2021/06/10 21:04:36;;;;;;;7.13;5.53;;;;;;;20.20;83.26;99993.56;6316394;22;20050;-80
2021/06/10 21:07:20;;;;;;;8.73;5.18;;;;;;;20.20;82.79;99993.56;6289326;22;20014;-80
2021/06/10 21:10:20;;;;;;;6.18;5.50;;;;;;;19.97;83.14;99990.81;6289529;22;20096;-80
2021/06/10 21:12:49;;;;;;;6.22;5.50;;;;;;;20.11;82.91;99982.97;6289504;22;20103;-79
2021/06/10 21:15:47;;;;;;;7.88;6.40;;;;;;;20.01;86.13;99987.94;6317652;22;20083;-80
2021/06/10 21:18:13;;;;;;;8.57;6.88;;;;;;;19.94;86.05;99991.88;6316585;22;20080;-79
2021/06/10 21:20:42;;;;;;;12.35;7.70;;;;;;;19.81;87.84;99986.69;6316680;22;20023;-79
2021/06/10 21:23:31;;;;;;;12.43;7.40;;;;;;;19.64;88.41;99992.13;6317329;22;20011;-83
2021/06/10 21:26:07;;;;;;;12.88;7.75;;;;;;;19.84;88.60;99995.97;6291034;22;20014;-79
2021/06/10 21:28:41;;;;;;;10.55;7.82;;;;;;;19.77;89.42;99994.72;6291636;22;20262;-80
2021/06/10 21:31:10;;;;;;;11.95;7.70;;;;;;;19.75;89.26;99981.91;6291930;22;20006;-79
2021/06/10 21:33:40;;;;;;;12.77;6.95;;;;;;;20.11;87.43;99981.22;6294740;22;20103;-81
2021/06/10 21:36:08;;;;;;;12.57;7.43;;;;;;;20.04;87.11;99980.00;6318221;22;20032;-82
2021/06/10 21:38:51;;;;;;;9.05;7.45;;;;;;;19.64;89.45;99975.81;6318224;22;20007;-80
2021/06/10 21:41:18;;;;;;;9.05;6.90;;;;;;;19.69;89.57;99976.31;6291646;22;20007;-80
2021/06/10 21:43:44;;;;;;;9.57;7.40;;;;;;;19.49;90.35;99974.25;6318649;22;20011;-81
2021/06/10 21:46:23;;;;;;;10.15;7.70;;;;;;;19.52;90.22;99979.19;6290623;22;20070;-81
2021/06/10 21:49:08;;;;;;;8.90;7.07;;;;;;;19.29;92.53;99982.38;6318645;22;20011;-81
2021/06/10 21:51:48;;;;;;;9.90;6.72;;;;;;;19.46;91.43;99977.00;6318490;22;20018;-81
2021/06/10 21:54:16;;;;;;;13.38;7.68;;;;;;;19.75;89.07;99979.34;6290839;22;20003;-80
2021/06/10 21:56:48;;;;;;;10.90;6.60;;;;;;;19.42;91.96;99978.13;6291093;22;20026;-80
2021/06/10 21:59:47;;;;;;;11.95;7.30;;;;;;;19.43;90.56;99977.22;6291385;22;20014;-81
2021/06/10 22:02:21;;;;;;;11.07;7.20;;;;;;;19.80;89.43;99963.56;6318371;22;20018;-80
2021/06/10 22:05:40;;;;;;;10.30;7.53;;;;;;;19.46;91.07;99969.25;6318520;22;20058;-82
2021/06/10 22:08:36;;;;;;;10.30;7.15;;;;;;;19.26;92.38;99951.63;6291328;22;20071;-81
2021/06/10 22:11:16;;;;;;;12.18;6.70;;;;;;;19.32;92.27;99966.72;6318128;22;20090;-80
2021/06/10 22:13:53;;;;;;;13.32;6.95;;;;;;;19.27;93.19;99961.03;6318301;22;20102;-82
2021/06/10 22:16:45;;;;;;;13.38;8.02;;;;;;;19.29;93.13;99952.28;6317906;22;20007;-84
2021/06/10 22:19:16;;;;;;;;;;;;;;;19.62;92.13;99957.03;6319667;22;20139;-82
2021/06/10 22:22:09;;;;;;;10.65;7.18;;;;;;;19.69;90.54;99956.53;6318500;22;19929;-81
2021/06/10 22:24:52;;;;;;;12.07;7.22;;;;;;;19.44;91.68;99961.63;6291085;22;20357;-83
2021/06/10 22:27:52;;;;;;;11.23;7.43;;;;;;;19.44;92.36;99956.47;6290589;22;20068;-83
2021/06/10 22:30:23;;;;;;;12.23;7.40;;;;;;;19.17;92.87;99958.22;6317610;22;20007;-82
2021/06/10 22:32:57;;;;;;;14.53;7.53;;;;;;;18.93;93.93;99952.03;6318040;22;20004;-82
2021/06/10 22:36:16;;;;;;;11.10;7.38;;;;;;;19.09;93.23;99942.41;6290849;22;20245;-83
2021/06/10 22:38:44;;;;;;;17.67;7.40;;;;;;;18.85;95.08;99947.34;6318327;22;20027;-82
2021/06/10 22:41:30;;;;;;;10.02;7.10;;;;;;;18.99;94.90;99943.91;6318212;22;20009;-83
2021/06/10 22:44:00;;;;;;;12.07;7.07;;;;;;;18.51;96.34;99934.91;6290653;22;20022;-82
2021/06/10 22:46:34;;;;;;;11.07;7.28;;;;;;;18.80;96.93;99938.22;6318827;22;20026;-82
2021/06/10 22:49:19;;;;;;;13.32;7.20;;;;;;;18.81;96.24;99935.59;6318002;22;20388;-81
2021/06/10 22:52:14;;;;;;;11.15;8.02;;;;;;;18.76;95.60;99942.75;6318023;22;20297;-82
2021/06/10 22:54:43;;;;;;;12.20;6.90;;;;;;;18.97;95.91;99938.03;6294516;22;20015;-82
2021/06/10 22:57:10;;;;;;;9.65;6.82;;;;;;;19.13;94.34;99938.72;6318968;22;20046;-82
2021/06/10 22:59:52;;;;;;;11.05;6.60;;;;;;;18.95;95.13;99934.72;6291094;22;20014;-83
2021/06/10 23:02:28;;;;;;;11.30;7.07;;;;;;;18.79;95.28;99937.44;6290670;22;20026;-83
2021/06/10 23:05:19;;;;;;;12.93;7.60;;;;;;;19.15;94.02;99933.44;6290466;22;20010;-83
2021/06/10 23:07:47;;;;;;;11.63;7.72;;;;;;;19.04;94.87;99928.97;6290409;22;20013;-80
2021/06/10 23:10:27;;;;;;;12.80;8.05;;;;;;;19.28;93.86;99924.00;6290652;22;20439;-80
2021/06/10 23:16:15;;;;;;;14.18;7.38;;;;;;;18.71;96.01;99926.78;6317789;22;20014;-79
2021/06/10 23:19:03;;;;;;;10.18;7.63;;;;;;;19.01;94.60;99929.19;6289893;22;20031;-79
2021/06/10 23:21:46;;;;;;;13.13;7.35;;;;;;;18.81;94.18;99922.72;6317764;22;20007;-79
2021/06/10 23:24:23;;;;;;;11.13;7.55;;;;;;;18.65;96.14;99924.56;6289756;22;20011;-82
2021/06/10 23:26:52;;;;;;;11.07;7.55;;;;;;;18.63;95.13;99929.00;6290963;22;20007;-80
2021/06/10 23:29:23;;;;;;;10.80;7.38;;;;;;;18.69;96.18;99923.47;6290275;22;20023;-83
2021/06/10 23:32:17;;;;;;;11.73;7.55;;;;;;;18.65;97.27;99929.72;6317336;22;20328;-82
2021/06/10 23:35:05;;;;;;;12.55;7.85;;;;;;;18.70;95.57;99926.84;6290213;22;20014;-83
2021/06/10 23:37:33;;;;;;;9.77;7.60;;;;;;;18.56;96.19;99922.56;6317544;22;20010;-82
2021/06/10 23:40:17;;;;;;;10.43;7.68;;;;;;;18.69;96.35;99927.78;6317081;22;20266;-82
2021/06/10 23:42:51;;;;;;;12.20;8.25;;;;;;;18.30;98.38;99927.63;6318066;22;20023;-82
2021/06/10 23:45:17;;;;;;;13.93;8.30;;;;;;;18.38;98.37;99922.84;6308943;22;20015;-81
2021/06/10 23:48:14;;;;;;;12.82;7.75;;;;;;;18.16;99.37;99918.97;6317706;22;20027;-81
2021/06/10 23:50:45;;;;;;;10.07;8.00;;;;;;;18.36;98.68;99916.94;6290321;22;20011;-81
2021/06/10 23:53:22;;;;;;;11.35;8.02;;;;;;;18.11;100.00;99918.44;6290017;22;20258;-81
2021/06/10 23:55:49;;;;;;;11.68;8.55;;;;;;;18.50;97.60;99909.25;6317226;22;20011;-81
2021/06/10 23:59:06;;;;;;;10.85;8.52;;;;;;;18.55;98.55;99910.63;6317735;22;20007;-81
